Time;durP1;ratioP1;P1;durP2;ratioP2;P2;SDS_P1;SDS_P2;PMS_P1;PMS_P2;Temp;Humidity;BMP_temperature;BMP_pressure;BME280_temperature;BME280_humidity;BME280_pressure;Samples;Min_cycle;Max_cycle;Signal;HPM_P1;HPM_P2
2021/10/21 00:02:18;;;;;;;4.13;0.77;;;13.40;99.90;;;;;;5137242;27;20031;-78
2021/10/21 00:04:44;;;;;;;5.13;1.35;;;13.50;99.90;;;;;;5147444;27;20023;-78
2021/10/21 00:07:10;;;;;;;6.78;1.42;;;13.70;99.90;;;;;;5157878;27;20110;-78
2021/10/21 00:09:36;;;;;;;5.15;1.60;;;13.80;99.90;;;;;;5157770;27;20031;-78
2021/10/21 00:12:03;;;;;;;5.00;1.30;;;13.90;99.90;;;;;;5157710;27;20015;-78
2021/10/21 00:14:30;;;;;;;2.83;1.30;;;14.00;99.90;;;;;;5156925;27;20375;-78
2021/10/21 00:16:56;;;;;;;3.75;1.15;;;14.00;99.90;;;;;;5157711;27;20026;-78
2021/10/21 00:19:22;;;;;;;5.28;1.27;;;14.00;99.90;;;;;;5136586;27;20388;-78
2021/10/21 00:21:48;;;;;;;8.68;1.80;;;13.90;99.90;;;;;;5136179;27;20027;-78
2021/10/21 00:24:15;;;;;;;5.88;1.15;;;13.90;99.90;;;;;;5135757;27;20019;-80
2021/10/21 00:26:41;;;;;;;6.80;1.45;;;14.00;99.90;;;;;;5138077;27;20357;-80
2021/10/21 00:29:06;;;;;;;6.53;0.70;;;14.00;99.90;;;;;;5139236;27;20026;-80
2021/10/21 00:31:32;;;;;;;6.50;0.80;;;14.00;99.90;;;;;;5137740;27;20031;-80
2021/10/21 00:33:57;;;;;;;4.30;0.47;;;13.90;99.90;;;;;;5137127;27;20087;-80
2021/10/21 00:36:23;;;;;;;5.10;0.70;;;14.00;99.90;;;;;;5137792;27;20493;-80
2021/10/21 00:38:48;;;;;;;4.57;0.93;;;13.90;99.90;;;;;;5138087;27;20092;-80
2021/10/21 00:41:14;;;;;;;1.27;0.60;;;13.90;99.90;;;;;;5137206;27;20110;-80
2021/10/21 00:43:41;;;;;;;4.35;0.80;;;13.90;99.90;;;;;;5138647;27;20027;-80
2021/10/21 00:46:12;;;;;;;6.05;0.75;;;15.40;99.90;;;;;;5137568;27;20046;-80
2021/10/21 00:48:39;;;;;;;2.60;0.90;;;16.20;99.90;;;;;;5138655;27;20031;-80
2021/10/21 00:51:07;;;;;;;2.92;0.60;;;14.00;99.90;;;;;;5137887;27;20034;-80
2021/10/21 00:53:34;;;;;;;2.27;0.50;;;14.00;99.90;;;;;;5138668;27;20023;-80
2021/10/21 00:56:03;;;;;;;3.60;0.75;;;14.00;99.90;;;;;;5137877;27;20115;-80
2021/10/21 00:58:29;;;;;;;2.67;0.38;;;14.00;99.90;;;;;;5137961;27;20023;-83
2021/10/21 01:00:55;;;;;;;3.53;0.60;;;14.00;99.90;;;;;;5137941;27;20541;-83
2021/10/21 01:03:21;;;;;;;5.93;0.52;;;13.90;99.90;;;;;;5137733;27;20023;-83
2021/10/21 01:05:47;;;;;;;3.03;0.20;;;14.00;99.90;;;;;;5144436;27;20027;-84
2021/10/21 01:08:13;;;;;;;0.45;0.00;;;13.80;99.90;;;;;;5157588;27;20441;-83
2021/10/21 01:10:39;;;;;;;1.55;0.00;;;13.40;99.90;;;;;;5157482;27;20018;-83
2021/10/21 01:13:05;;;;;;;0.20;0.00;;;13.00;99.90;;;;;;5156542;27;20023;-75
2021/10/21 01:15:32;;;;;;;0.15;0.00;;;12.70;99.90;;;;;;5153445;27;20117;-75
2021/10/21 01:17:58;;;;;;;0.85;0.00;;;12.30;99.90;;;;;;5155089;27;20030;-75
2021/10/21 01:20:25;;;;;;;0.98;0.00;;;12.10;99.90;;;;;;5155032;27;20023;-76
2021/10/21 01:22:51;;;;;;;0.88;0.00;;;12.00;99.90;;;;;;5140136;27;20066;-75
2021/10/21 01:25:17;;;;;;;1.10;0.00;;;11.80;99.90;;;;;;5135472;27;20023;-76
2021/10/21 01:27:44;;;;;;;0.22;0.00;;;11.70;99.90;;;;;;5134147;27;20121;-75
2021/10/21 01:30:25;;;;;;;0.68;0.00;;;11.70;99.90;;;;;;5135464;27;20026;-76
2021/10/21 01:32:52;;;;;;;1.38;0.00;;;11.70;99.90;;;;;;5134315;27;20031;-75
2021/10/21 01:35:17;;;;;;;3.72;0.05;;;11.60;99.90;;;;;;5134045;27;20467;-76
2021/10/21 01:37:43;;;;;;;1.58;0.20;;;11.60;99.90;;;;;;5141165;27;20015;-76
2021/10/21 01:40:11;;;;;;;3.85;0.30;;;11.60;99.90;;;;;;5154611;27;20496;-76
2021/10/21 01:42:43;;;;;;;2.40;0.00;;;11.60;99.90;;;;;;5154671;27;20026;-76
2021/10/21 01:45:16;;;;;;;0.10;0.00;;;11.60;99.90;;;;;;5157117;27;20025;-76
2021/10/21 01:47:41;;;;;;;5.45;0.45;;;11.60;99.90;;;;;;5156160;27;20025;-77
2021/10/21 01:50:07;;;;;;;4.70;0.00;;;11.60;99.90;;;;;;5155806;27;20015;-76
2021/10/21 01:52:33;;;;;;;2.83;0.00;;;11.50;99.90;;;;;;5155654;27;20027;-76
2021/10/21 01:54:58;;;;;;;3.13;0.03;;;11.60;99.90;;;;;;5136187;27;20028;-75
2021/10/21 01:57:24;;;;;;;0.80;0.00;;;11.70;99.90;;;;;;5133624;27;20030;-76
2021/10/21 01:59:49;;;;;;;4.05;0.22;;;11.70;99.90;;;;;;5135435;27;20019;-76
2021/10/21 02:02:15;;;;;;;2.00;0.08;;;11.70;99.90;;;;;;5134834;27;20474;-76
2021/10/21 02:04:41;;;;;;;2.40;0.22;;;11.60;99.90;;;;;;5144581;27;20035;-76
2021/10/21 02:07:06;;;;;;;0.22;0.00;;;11.70;99.90;;;;;;5154122;27;20069;-76
2021/10/21 02:09:32;;;;;;;0.75;0.00;;;11.60;99.90;;;;;;5155345;27;20031;-77
2021/10/21 02:12:00;;;;;;;1.52;0.00;;;11.70;99.90;;;;;;5156212;27;20026;-81
2021/10/21 02:14:26;;;;;;;0.20;0.00;;;11.70;99.90;;;;;;5158557;27;20022;-82
2021/10/21 02:16:51;;;;;;;0.57;0.00;;;11.70;99.90;;;;;;5158112;27;20019;-81
2021/10/21 02:19:17;;;;;;;6.50;0.10;;;11.60;99.90;;;;;;5138569;27;20031;-81
2021/10/21 02:21:43;;;;;;;0.28;0.10;;;11.60;99.90;;;;;;5135068;27;20026;-78
2021/10/21 02:24:08;;;;;;;1.17;0.00;;;11.50;99.90;;;;;;5133284;27;20011;-78
2021/10/21 02:26:34;;;;;;;6.82;0.00;;;11.50;99.90;;;;;;5115916;22;20051;-82
2021/10/21 02:28:59;;;;;;;7.32;0.00;;;11.50;99.90;;;;;;5073390;28;20032;-83
2021/10/21 02:31:25;;;;;;;4.95;0.00;;;11.50;99.90;;;;;;5073451;28;20024;-82
2021/10/21 02:33:50;;;;;;;1.85;0.00;;;11.50;99.90;;;;;;5073936;28;20020;-83
2021/10/21 02:36:16;;;;;;;2.83;0.10;;;11.40;99.90;;;;;;5073861;28;20029;-82
2021/10/21 02:38:42;;;;;;;1.35;0.00;;;11.50;99.90;;;;;;5074262;28;20021;-83
2021/10/21 02:41:07;;;;;;;0.20;0.00;;;11.50;99.90;;;;;;5075514;28;20028;-80
2021/10/21 02:43:35;;;;;;;2.80;0.20;;;11.40;99.90;;;;;;5091882;28;20122;-77
2021/10/21 02:46:02;;;;;;;1.80;0.10;;;11.40;99.90;;;;;;5092114;28;20073;-77
2021/10/21 02:48:28;;;;;;;5.60;0.20;;;11.40;99.90;;;;;;5092066;28;20022;-78
2021/10/21 02:50:54;;;;;;;0.10;0.00;;;11.10;99.90;;;;;;5092125;28;20059;-77
2021/10/21 02:53:19;;;;;;;1.45;0.00;;;11.80;99.90;;;;;;5093469;28;20059;-78
2021/10/21 02:55:45;;;;;;;2.28;0.17;;;11.20;99.90;;;;;;5092136;28;20117;-77
2021/10/21 02:58:10;;;;;;;2.10;0.00;;;11.20;99.90;;;;;;5084653;28;20377;-77
2021/10/21 03:00:36;;;;;;;4.22;0.32;;;11.20;99.90;;;;;;5075227;28;20028;-77
2021/10/21 03:03:01;;;;;;;4.72;0.17;;;11.10;99.90;;;;;;5093408;28;20423;-77
2021/10/21 03:05:27;;;;;;;2.92;0.00;;;11.10;99.90;;;;;;5093159;28;20548;-77
2021/10/21 03:07:52;;;;;;;2.90;0.00;;;11.10;99.90;;;;;;5093121;28;20024;-78
2021/10/21 03:10:18;;;;;;;5.07;0.00;;;11.10;99.90;;;;;;5075005;28;20165;-77
2021/10/21 03:12:44;;;;;;;0.45;0.00;;;11.10;99.90;;;;;;5092731;28;20038;-79
2021/10/21 03:15:10;;;;;;;3.05;0.10;;;11.10;99.90;;;;;;5091754;28;20093;-77
2021/10/21 03:17:41;;;;;;;2.17;0.08;;;11.10;99.90;;;;;;5093489;28;20024;-77
2021/10/21 03:20:12;;;;;;;3.22;0.00;;;11.10;99.90;;;;;;5093605;28;20023;-77
2021/10/21 03:22:39;;;;;;;1.10;0.65;;;11.10;99.90;;;;;;5091760;28;20020;-77
2021/10/21 03:25:07;;;;;;;2.00;0.00;;;11.10;99.90;;;;;;5091664;28;20028;-76
2021/10/21 03:27:33;;;;;;;1.20;0.00;;;11.10;99.90;;;;;;5093336;28;20480;-78
2021/10/21 03:29:58;;;;;;;3.28;0.00;;;11.20;99.90;;;;;;5093025;28;20145;-78
2021/10/21 03:32:24;;;;;;;8.10;0.75;;;11.20;99.90;;;;;;5093200;28;20047;-77
2021/10/21 03:34:49;;;;;;;6.18;0.10;;;11.30;99.90;;;;;;5093129;28;20136;-78
2021/10/21 03:37:15;;;;;;;7.63;0.10;;;11.30;99.90;;;;;;5092916;28;20025;-76
2021/10/21 03:39:42;;;;;;;4.45;0.00;;;11.30;99.90;;;;;;5091644;28;20031;-77
2021/10/21 03:42:08;;;;;;;4.18;0.00;;;11.30;99.90;;;;;;5093455;28;20342;-77
2021/10/21 03:44:35;;;;;;;6.93;0.40;;;11.30;99.90;;;;;;5091620;28;20111;-77
2021/10/21 03:47:02;;;;;;;2.03;0.00;;;11.30;99.90;;;;;;5091517;28;20020;-77
2021/10/21 03:49:28;;;;;;;0.63;0.00;;;11.30;99.90;;;;;;5091456;28;20023;-77
2021/10/21 03:51:53;;;;;;;3.00;0.30;;;11.30;99.90;;;;;;5092736;28;20032;-77
2021/10/21 03:54:19;;;;;;;1.55;0.20;;;11.30;99.90;;;;;;5091350;28;20032;-77
2021/10/21 03:56:44;;;;;;;0.52;0.00;;;11.40;99.90;;;;;;5094384;28;20028;-78
2021/10/21 03:59:10;;;;;;;4.68;0.10;;;11.40;99.90;;;;;;5096515;28;20094;-78
2021/10/21 04:01:36;;;;;;;1.25;0.00;;;11.40;99.90;;;;;;5096189;28;20047;-77
2021/10/21 04:04:02;;;;;;;4.10;0.35;;;11.50;99.90;;;;;;5096049;28;20055;-77
2021/10/21 04:06:27;;;;;;;2.78;0.20;;;11.50;99.90;;;;;;5077970;28;20028;-77
2021/10/21 04:08:53;;;;;;;2.13;0.00;;;11.50;99.90;;;;;;5077908;28;20017;-78
2021/10/21 04:11:18;;;;;;;0.30;0.00;;;11.50;99.90;;;;;;5096108;28;20016;-77
2021/10/21 04:13:44;;;;;;;5.50;0.40;;;11.50;99.90;;;;;;5097293;28;20024;-79
2021/10/21 04:16:09;;;;;;;1.13;0.10;;;11.40;99.90;;;;;;5083118;28;20020;-80
2021/10/21 04:18:35;;;;;;;2.65;0.08;;;11.40;99.90;;;;;;5101293;28;20427;-80
2021/10/21 04:21:00;;;;;;;2.53;0.00;;;11.40;99.90;;;;;;5098833;28;20103;-80
2021/10/21 04:23:26;;;;;;;2.55;0.00;;;11.40;99.90;;;;;;5096950;28;20028;-80
2021/10/21 04:25:51;;;;;;;2.80;0.13;;;11.30;99.90;;;;;;5097325;28;20370;-80
2021/10/21 04:28:17;;;;;;;1.88;0.45;;;11.30;99.90;;;;;;5098660;28;20469;-79
2021/10/21 04:30:43;;;;;;;2.78;0.00;;;11.30;99.90;;;;;;5098659;28;20380;-80
2021/10/21 04:33:09;;;;;;;1.27;0.00;;;11.30;99.90;;;;;;5097890;28;20028;-80
2021/10/21 04:35:34;;;;;;;5.00;0.17;;;11.30;99.90;;;;;;5098046;28;20378;-80
2021/10/21 04:38:00;;;;;;;1.88;0.00;;;11.30;99.90;;;;;;5097007;28;20020;-80
2021/10/21 04:40:25;;;;;;;1.55;0.00;;;11.30;99.90;;;;;;5095242;28;20020;-77
2021/10/21 04:42:52;;;;;;;3.00;0.32;;;11.30;99.90;;;;;;5094146;28;20473;-77
2021/10/21 04:45:17;;;;;;;3.38;0.15;;;11.30;99.90;;;;;;5094161;28;20388;-77
2021/10/21 04:47:43;;;;;;;4.40;0.00;;;11.30;99.90;;;;;;5096057;28;20020;-82
2021/10/21 04:50:08;;;;;;;0.85;0.00;;;11.30;99.90;;;;;;5094550;28;20401;-82
2021/10/21 04:52:35;;;;;;;4.40;0.00;;;11.30;99.90;;;;;;5078537;28;20027;-82
2021/10/21 04:55:01;;;;;;;5.85;0.32;;;11.20;99.90;;;;;;5077984;28;20065;-82
2021/10/21 04:57:26;;;;;;;3.78;0.10;;;11.20;99.90;;;;;;5096416;28;20399;-82
2021/10/21 04:59:52;;;;;;;4.57;0.47;;;11.20;99.90;;;;;;5078424;28;20012;-82
2021/10/21 05:02:18;;;;;;;1.65;0.00;;;11.20;99.90;;;;;;5096370;28;20031;-82
2021/10/21 05:04:43;;;;;;;1.45;0.00;;;11.20;99.90;;;;;;5096840;28;20026;-83
2021/10/21 05:07:09;;;;;;;0.57;0.00;;;11.20;99.90;;;;;;5078282;28;20024;-83
2021/10/21 05:09:34;;;;;;;1.60;0.00;;;11.10;99.90;;;;;;5096841;28;20569;-78
2021/10/21 05:12:00;;;;;;;3.50;0.73;;;11.00;99.90;;;;;;5095404;28;20028;-77
2021/10/21 05:14:25;;;;;;;1.85;0.00;;;10.90;99.90;;;;;;5096410;28;20023;-83
2021/10/21 05:16:51;;;;;;;0.90;0.03;;;10.70;99.90;;;;;;5078266;28;20024;-81
2021/10/21 05:19:16;;;;;;;0.00;0.00;;;10.60;99.90;;;;;;5078449;28;20028;-82
2021/10/21 05:21:42;;;;;;;2.55;0.00;;;10.50;99.90;;;;;;5077829;28;20020;-83
2021/10/21 05:24:08;;;;;;;1.60;0.00;;;10.50;99.90;;;;;;5095963;28;20106;-82
2021/10/21 05:26:33;;;;;;;1.02;0.00;;;10.50;99.90;;;;;;5077819;28;20127;-82
2021/10/21 05:28:59;;;;;;;0.38;0.00;;;10.40;99.90;;;;;;5078272;28;20020;-82
2021/10/21 05:31:24;;;;;;;1.45;0.00;;;10.30;99.90;;;;;;5077215;28;20198;-77
2021/10/21 05:33:50;;;;;;;2.45;0.00;;;10.30;99.90;;;;;;5076250;28;20032;-76
2021/10/21 05:36:15;;;;;;;0.45;0.00;;;10.30;99.90;;;;;;5094835;28;20453;-78
2021/10/21 05:38:41;;;;;;;0.30;0.00;;;10.40;99.90;;;;;;5076472;28;20106;-76
2021/10/21 05:41:06;;;;;;;1.45;0.00;;;10.30;99.90;;;;;;5094587;28;20385;-77
2021/10/21 05:43:32;;;;;;;1.42;0.00;;;10.30;99.90;;;;;;5095346;28;20384;-78
2021/10/21 05:45:58;;;;;;;1.55;0.00;;;10.30;99.90;;;;;;5076136;28;20024;-77
2021/10/21 05:48:23;;;;;;;0.60;0.00;;;10.30;99.90;;;;;;5094468;28;20028;-77
2021/10/21 05:50:49;;;;;;;3.90;0.88;;;10.20;99.90;;;;;;5076139;28;20507;-77
2021/10/21 05:53:14;;;;;;;1.80;0.25;;;10.20;99.90;;;;;;5094150;28;20020;-78
2021/10/21 05:55:40;;;;;;;2.92;0.28;;;10.20;99.90;;;;;;5076091;28;20020;-77
2021/10/21 05:58:06;;;;;;;1.15;0.00;;;10.20;99.90;;;;;;5095352;28;20020;-77
2021/10/21 06:00:31;;;;;;;1.90;0.00;;;10.20;99.90;;;;;;5094014;28;20024;-77
2021/10/21 06:02:57;;;;;;;8.75;0.22;;;10.20;99.90;;;;;;5093907;28;20388;-77
2021/10/21 06:05:23;;;;;;;5.47;0.20;;;10.20;99.90;;;;;;5075726;28;20032;-77
2021/10/21 06:07:49;;;;;;;4.85;0.10;;;10.10;99.90;;;;;;5092771;28;20017;-78
2021/10/21 06:10:15;;;;;;;4.07;0.10;;;10.10;99.90;;;;;;5092520;28;20028;-77
2021/10/21 06:12:42;;;;;;;7.25;0.50;;;10.20;99.90;;;;;;5093839;28;20491;-77
2021/10/21 06:15:08;;;;;;;4.15;0.00;;;10.10;99.90;;;;;;5093761;28;20019;-77
2021/10/21 06:17:34;;;;;;;5.43;0.00;;;10.10;99.90;;;;;;5092591;28;20481;-77
2021/10/21 06:19:59;;;;;;;5.53;0.17;;;10.20;99.90;;;;;;5093409;28;20043;-77
2021/10/21 06:22:25;;;;;;;7.68;0.00;;;10.20;99.90;;;;;;5092544;28;20115;-77
2021/10/21 06:24:50;;;;;;;10.23;0.10;;;10.10;99.90;;;;;;5093482;28;20032;-77
2021/10/21 06:27:16;;;;;;;5.28;0.75;;;10.10;99.90;;;;;;5092551;28;20039;-77
2021/10/21 06:29:44;;;;;;;4.90;0.68;;;10.10;99.90;;;;;;5092313;28;20061;-77
2021/10/21 06:32:10;;;;;;;5.65;0.00;;;10.10;99.90;;;;;;5093843;28;20030;-77
2021/10/21 06:34:36;;;;;;;12.00;0.32;;;10.10;99.90;;;;;;5093851;28;20020;-78
2021/10/21 06:37:02;;;;;;;3.25;0.20;;;10.10;99.90;;;;;;5092468;28;20016;-78
2021/10/21 06:39:30;;;;;;;4.45;0.45;;;10.10;99.90;;;;;;5093693;28;20106;-78
2021/10/21 06:41:56;;;;;;;4.10;0.10;;;10.30;99.90;;;;;;5092027;28;20543;-78
2021/10/21 06:44:21;;;;;;;6.45;0.00;;;10.10;99.90;;;;;;5075482;28;20111;-77
2021/10/21 06:46:47;;;;;;;6.95;0.05;;;10.10;99.90;;;;;;5093919;28;20027;-77
2021/10/21 06:49:13;;;;;;;7.20;0.08;;;10.10;99.90;;;;;;5075414;28;20020;-77
2021/10/21 06:51:38;;;;;;;8.15;0.15;;;10.10;99.90;;;;;;5075350;28;20024;-77
2021/10/21 06:54:04;;;;;;;2.88;0.08;;;10.10;99.90;;;;;;5094757;28;20111;-82
2021/10/21 06:56:29;;;;;;;5.28;0.05;;;10.20;99.90;;;;;;5076576;28;20088;-81
2021/10/21 06:58:55;;;;;;;4.03;0.10;;;10.20;99.90;;;;;;5077037;28;20481;-81
2021/10/21 07:01:20;;;;;;;5.28;0.88;;;10.20;99.90;;;;;;5086162;28;20020;-81
2021/10/21 07:03:46;;;;;;;5.53;0.10;;;10.20;99.90;;;;;;5094827;28;20465;-81
2021/10/21 07:06:11;;;;;;;6.75;1.17;;;10.20;99.90;;;;;;5077146;28;20059;-80
2021/10/21 07:08:39;;;;;;;23.52;1.42;;;10.20;99.90;;;;;;5094926;28;20094;-81
2021/10/21 07:11:05;;;;;;;15.45;0.52;;;10.20;99.90;;;;;;5077405;28;20385;-81
2021/10/21 07:13:30;;;;;;;13.77;1.55;;;10.20;99.90;;;;;;5077751;28;20085;-79
2021/10/21 07:15:56;;;;;;;6.72;0.38;;;10.20;99.90;;;;;;5095956;28;20089;-79
2021/10/21 07:18:22;;;;;;;5.05;0.35;;;10.30;99.90;;;;;;5077560;28;20361;-79
2021/10/21 07:20:47;;;;;;;2.70;0.00;;;10.40;99.90;;;;;;5096306;28;20421;-80
2021/10/21 07:23:13;;;;;;;8.23;1.08;;;11.50;99.90;;;;;;5077120;28;20020;-79
2021/10/21 07:25:39;;;;;;;9.15;0.60;;;10.40;99.90;;;;;;5095525;28;20036;-79
2021/10/21 07:28:04;;;;;;;1.38;0.30;;;10.40;99.90;;;;;;5077236;28;20039;-79
2021/10/21 07:30:30;;;;;;;11.70;0.52;;;10.40;99.90;;;;;;5096253;28;20022;-79
2021/10/21 07:32:59;;;;;;;10.80;1.17;;;10.30;99.90;;;;;;5099341;28;20020;-79
2021/10/21 07:35:28;;;;;;;11.13;0.82;;;10.40;99.90;;;;;;5099174;28;20499;-79
2021/10/21 07:37:53;;;;;;;14.07;0.47;;;10.40;99.90;;;;;;5082508;28;20103;-79
2021/10/21 07:40:19;;;;;;;8.98;0.25;;;10.40;99.90;;;;;;5094053;28;20090;-80
2021/10/21 07:42:44;;;;;;;6.93;1.00;;;10.40;99.90;;;;;;5097246;28;20073;-77
2021/10/21 07:45:11;;;;;;;8.23;0.35;;;10.50;99.90;;;;;;5096674;28;20024;-78
2021/10/21 07:47:36;;;;;;;3.78;0.10;;;10.50;99.90;;;;;;5088052;28;20020;-77
2021/10/21 07:50:07;;;;;;;3.60;0.05;;;10.60;99.90;;;;;;5096541;28;20035;-78
2021/10/21 07:52:35;;;;;;;9.32;1.02;;;10.60;99.90;;;;;;5078318;28;20107;-78
2021/10/21 07:55:00;;;;;;;11.60;0.60;;;10.60;99.90;;;;;;5096579;28;20028;-78
2021/10/21 07:57:27;;;;;;;8.48;0.57;;;10.70;99.90;;;;;;5096538;28;20065;-78
2021/10/21 07:59:52;;;;;;;10.38;0.47;;;10.80;99.90;;;;;;5078148;28;20024;-80
2021/10/21 08:02:19;;;;;;;10.90;0.77;;;10.90;99.90;;;;;;5094839;28;20027;-78
2021/10/21 08:04:48;;;;;;;8.27;0.25;;;10.90;99.90;;;;;;5095891;28;20008;-78
2021/10/21 08:07:14;;;;;;;6.55;0.10;;;10.90;99.90;;;;;;5097774;28;20050;-80
2021/10/21 08:09:39;;;;;;;2.13;0.15;;;11.00;99.90;;;;;;5097084;28;20537;-80
2021/10/21 08:12:07;;;;;;;3.07;0.10;;;11.00;99.90;;;;;;5098592;28;20028;-79
2021/10/21 08:14:34;;;;;;;4.30;0.40;;;11.10;99.90;;;;;;5097588;28;20079;-79
2021/10/21 08:16:59;;;;;;;5.53;0.95;;;11.20;99.90;;;;;;5097136;28;20060;-79
2021/10/21 08:19:26;;;;;;;6.05;0.10;;;11.20;99.90;;;;;;5096992;28;20028;-79
2021/10/21 08:21:53;;;;;;;4.55;1.02;;;11.40;99.90;;;;;;5098475;28;20496;-79
2021/10/21 08:24:20;;;;;;;4.50;0.00;;;11.60;99.90;;;;;;5097685;28;20045;-79
2021/10/21 08:26:51;;;;;;;7.68;0.10;;;11.60;99.90;;;;;;5096155;28;20481;-76
2021/10/21 08:29:18;;;;;;;5.25;0.25;;;11.60;99.90;;;;;;5095753;28;20020;-76
2021/10/21 08:31:44;;;;;;;0.68;0.00;;;11.60;99.90;;;;;;5094414;28;20027;-76
2021/10/21 08:34:09;;;;;;;2.45;0.10;;;11.40;99.90;;;;;;5095242;28;20438;-76
2021/10/21 08:36:35;;;;;;;2.03;0.00;;;11.20;99.90;;;;;;5095611;28;20032;-76
2021/10/21 08:39:00;;;;;;;5.40;0.57;;;11.90;99.90;;;;;;5095568;28;20020;-76
2021/10/21 08:41:26;;;;;;;0.98;0.17;;;11.20;99.90;;;;;;5077150;28;20093;-76
2021/10/21 08:43:52;;;;;;;3.53;0.00;;;11.20;99.90;;;;;;5077076;28;20430;-76
2021/10/21 08:46:26;;;;;;;1.48;0.00;;;11.20;99.90;;;;;;5095394;28;20029;-76
2021/10/21 08:49:03;;;;;;;10.75;0.80;;;11.10;99.90;;;;;;5078542;28;20423;-76
2021/10/21 08:51:30;;;;;;;2.38;0.20;;;11.10;99.90;;;;;;5094642;28;20024;-76
2021/10/21 08:53:56;;;;;;;5.72;0.17;;;11.00;99.90;;;;;;5095291;28;20107;-76
2021/10/21 08:56:25;;;;;;;3.03;0.08;;;11.00;99.90;;;;;;5093940;28;20022;-76
2021/10/21 08:58:56;;;;;;;2.50;0.00;;;11.00;99.90;;;;;;5093956;28;20099;-76
2021/10/21 09:01:33;;;;;;;3.67;0.00;;;11.00;99.90;;;;;;5095797;28;20050;-76
2021/10/21 09:09:21;;;;;;;2.53;0.03;;;11.10;99.90;;;;;;5074876;28;20481;-77
2021/10/21 09:12:03;;;;;;;2.65;0.40;;;11.10;99.90;;;;;;5074706;28;20024;-77
2021/10/21 09:14:37;;;;;;;3.50;0.00;;;11.10;99.90;;;;;;5056619;28;20074;-76
2021/10/21 09:17:04;;;;;;;6.30;0.55;;;11.10;99.90;;;;;;5074670;28;20024;-78
2021/10/21 09:19:31;;;;;;;3.55;0.10;;;11.10;99.90;;;;;;5056645;28;20115;-77
2021/10/21 09:21:56;;;;;;;1.10;0.20;;;11.10;99.90;;;;;;5056659;28;20505;-77
2021/10/21 09:24:25;;;;;;;5.97;0.45;;;11.10;99.90;;;;;;5074260;28;20107;-77
2021/10/21 09:27:00;;;;;;;1.65;0.00;;;11.00;99.90;;;;;;5056444;28;20052;-77
2021/10/21 09:29:27;;;;;;;2.90;0.00;;;11.00;99.90;;;;;;5074633;28;20428;-76
2021/10/21 09:32:12;;;;;;;3.80;0.08;;;11.00;99.90;;;;;;5056433;28;20025;-77
2021/10/21 09:34:43;;;;;;;1.58;0.00;;;14.00;99.90;;;;;;5056339;28;20370;-77
2021/10/21 09:37:16;;;;;;;6.65;0.10;;;11.10;99.90;;;;;;5056672;28;20468;-77
2021/10/21 09:39:48;;;;;;;4.82;0.60;;;11.20;99.90;;;;;;5095570;28;20457;-77
2021/10/21 09:42:15;;;;;;;0.88;0.00;;;11.20;99.90;;;;;;5093160;28;20055;-77
2021/10/21 09:44:41;;;;;;;8.43;0.85;;;11.20;99.90;;;;;;5094618;28;20031;-77
2021/10/21 09:47:22;;;;;;;3.65;0.00;;;11.30;99.90;;;;;;5093267;28;20026;-77
2021/10/21 09:49:55;;;;;;;3.13;0.47;;;11.20;99.90;;;;;;5094520;28;20081;-76
2021/10/21 09:52:23;;;;;;;4.88;1.02;;;11.20;99.90;;;;;;5094426;28;20028;-77
2021/10/21 09:54:50;;;;;;;1.63;0.35;;;11.20;99.90;;;;;;5092232;28;20047;-77
2021/10/21 09:57:18;;;;;;;3.95;0.00;;;11.30;99.90;;;;;;5093337;28;20028;-77
2021/10/21 10:00:03;;;;;;;6.28;0.80;;;11.50;99.90;;;;;;5093109;28;20544;-77
2021/10/21 10:02:31;;;;;;;5.40;1.42;;;11.80;99.90;;;;;;5094227;28;20042;-77
2021/10/21 10:05:01;;;;;;;7.22;1.10;;;12.00;99.90;;;;;;5085394;28;20020;-78
2021/10/21 10:07:27;;;;;;;3.92;0.55;;;13.00;99.90;;;;;;5094193;28;20016;-77
2021/10/21 10:09:59;;;;;;;5.70;0.03;;;12.30;99.90;;;;;;5075911;28;20069;-77
2021/10/21 10:12:27;;;;;;;5.30;0.10;;;12.20;99.90;;;;;;5075891;28;20016;-77
2021/10/21 10:14:52;;;;;;;8.82;0.32;;;12.10;99.90;;;;;;5094116;28;20024;-77
2021/10/21 10:17:21;;;;;;;4.35;0.15;;;12.00;99.90;;;;;;5075713;28;20549;-77
2021/10/21 10:19:49;;;;;;;6.03;0.00;;;12.00;99.90;;;;;;5094195;28;20162;-77
2021/10/21 10:22:23;;;;;;;14.45;0.43;;;12.00;99.90;;;;;;5075797;28;20020;-76
2021/10/21 10:24:49;;;;;;;1.77;0.10;;;11.90;99.90;;;;;;5075479;28;20020;-76
2021/10/21 10:27:27;;;;;;;3.97;0.00;;;11.90;99.90;;;;;;5075519;28;20012;-77
2021/10/21 10:29:53;;;;;;;2.20;0.10;;;11.70;99.90;;;;;;5075689;28;20024;-77
2021/10/21 10:32:35;;;;;;;8.25;0.08;;;11.60;99.90;;;;;;5075346;28;20023;-77
2021/10/21 10:35:11;;;;;;;3.08;0.00;;;11.50;99.90;;;;;;5076904;28;20031;-82
2021/10/21 10:37:38;;;;;;;0.52;0.00;;;11.50;99.90;;;;;;5077587;28;20072;-82
2021/10/21 10:40:04;;;;;;;2.80;0.28;;;11.50;99.90;;;;;;5077294;28;20043;-82
2021/10/21 10:42:30;;;;;;;1.42;0.35;;;11.60;99.90;;;;;;5077539;28;20016;-81
2021/10/21 10:44:59;;;;;;;1.42;0.00;;;11.80;99.90;;;;;;5076991;28;20546;-81
2021/10/21 10:47:42;;;;;;;2.70;0.28;;;12.00;99.90;;;;;;5094926;28;20385;-82
2021/10/21 10:50:35;;;;;;;3.28;0.40;;;12.10;99.90;;;;;;5096938;28;20046;-79
2021/10/21 10:53:06;;;;;;;1.95;0.10;;;12.10;99.90;;;;;;5078129;28;20024;-79
2021/10/21 10:55:44;;;;;;;4.45;0.13;;;12.10;99.90;;;;;;5078527;28;20081;-79
2021/10/21 10:58:15;;;;;;;0.90;0.00;;;12.10;99.90;;;;;;5078490;28;20468;-80
2021/10/21 11:00:51;;;;;;;1.95;0.00;;;11.80;99.90;;;;;;5083247;28;20021;-77
2021/10/21 11:03:37;;;;;;;1.02;0.00;;;11.50;99.90;;;;;;5091739;28;20032;-77
2021/10/21 11:06:32;;;;;;;1.48;0.05;;;11.30;99.90;;;;;;5094499;28;20043;-77
2021/10/21 11:09:06;;;;;;;3.30;0.00;;;11.10;99.90;;;;;;5095887;28;20094;-77
2021/10/21 11:11:59;;;;;;;6.63;0.52;;;10.90;99.90;;;;;;5097035;28;20023;-77
2021/10/21 11:14:31;;;;;;;3.85;0.00;;;10.80;99.90;;;;;;5097341;28;20028;-78
2021/10/21 11:16:57;;;;;;;2.20;0.28;;;10.70;99.90;;;;;;5097139;28;20461;-77
2021/10/21 11:19:51;;;;;;;5.03;0.00;;;10.50;99.90;;;;;;5097124;28;20012;-77
2021/10/21 11:22:20;;;;;;;4.80;0.00;;;10.50;99.90;;;;;;5077020;28;20036;-78
2021/10/21 11:24:47;;;;;;;2.90;0.00;;;10.40;99.90;;;;;;5078798;28;20431;-78
2021/10/21 11:27:27;;;;;;;2.00;0.00;;;10.40;99.90;;;;;;5078854;28;20114;-77
2021/10/21 11:29:59;;;;;;;1.42;0.00;;;10.40;99.90;;;;;;5080389;28;20107;-77
2021/10/21 11:32:31;;;;;;;2.47;0.25;;;10.40;99.90;;;;;;5087137;28;20042;-77
2021/10/21 11:34:56;;;;;;;2.83;0.00;;;10.30;99.90;;;;;;5097894;28;20046;-82
2021/10/21 11:37:36;;;;;;;4.05;0.00;;;10.30;99.90;;;;;;5099076;28;20024;-82
2021/10/21 11:40:03;;;;;;;0.75;0.00;;;10.20;99.90;;;;;;5080599;28;20377;-82
2021/10/21 11:42:29;;;;;;;1.35;0.17;;;11.80;99.90;;;;;;5080715;28;20024;-82
2021/10/21 11:45:09;;;;;;;4.20;0.00;;;10.20;99.90;;;;;;5097292;28;20128;-77
2021/10/21 11:47:37;;;;;;;1.17;0.00;;;10.30;99.90;;;;;;5095424;28;20059;-78
2021/10/21 11:50:04;;;;;;;2.27;0.00;;;10.40;99.90;;;;;;5095746;28;20035;-77
2021/10/21 11:52:43;;;;;;;1.75;0.03;;;10.40;99.90;;;;;;5095336;28;20013;-77
2021/10/21 11:55:26;;;;;;;;;;;10.40;99.90;;;;;;5095812;28;20555;-77
2021/10/21 11:57:52;;;;;;;3.83;0.00;;;10.40;99.90;;;;;;5096970;28;20285;-77
2021/10/21 12:00:26;;;;;;;2.30;0.10;;;10.50;99.90;;;;;;5096381;28;20023;-77
2021/10/21 12:02:57;;;;;;;3.13;0.38;;;10.60;99.90;;;;;;5093320;28;20028;-77
2021/10/21 12:05:29;;;;;;;4.07;0.25;;;10.80;99.90;;;;;;5096488;28;20090;-77
2021/10/21 12:07:56;;;;;;;3.60;0.32;;;11.10;99.90;;;;;;5096510;28;20028;-77
2021/10/21 12:10:53;;;;;;;1.63;0.15;;;11.40;99.90;;;;;;5078157;28;20481;-78
2021/10/21 12:13:34;;;;;;;4.00;0.57;;;11.60;99.90;;;;;;5073504;28;20125;-77
2021/10/21 12:16:03;;;;;;;3.75;0.13;;;11.80;99.90;;;;;;5096637;28;20385;-77
2021/10/21 12:18:32;;;;;;;4.90;0.28;;;11.80;99.90;;;;;;5085573;28;20111;-77
2021/10/21 12:21:01;;;;;;;3.05;0.00;;;11.80;99.90;;;;;;5095218;28;20393;-77
2021/10/21 12:23:30;;;;;;;2.50;0.00;;;12.00;99.90;;;;;;5095123;28;20362;-77
2021/10/21 12:26:07;;;;;;;2.63;0.00;;;12.30;99.90;;;;;;5095001;28;20036;-77
2021/10/21 12:28:47;;;;;;;2.92;0.00;;;12.80;99.90;;;;;;5094768;28;20023;-77
2021/10/21 12:31:27;;;;;;;4.78;0.10;;;12.80;99.90;;;;;;5094942;28;20012;-77
2021/10/21 12:34:02;;;;;;;8.07;0.00;;;12.80;99.90;;;;;;5093495;28;20077;-80
2021/10/21 12:36:33;;;;;;;6.78;0.20;;;12.50;99.90;;;;;;5098352;28;20073;-80
2021/10/21 12:39:10;;;;;;;4.70;0.00;;;12.10;99.90;;;;;;5100145;28;20522;-80
2021/10/21 12:42:03;;;;;;;3.20;0.00;;;11.80;99.90;;;;;;5098590;28;20480;-81
2021/10/21 12:44:36;;;;;;;1.45;0.00;;;11.20;99.90;;;;;;5096971;28;20035;-80
2021/10/21 12:47:12;;;;;;;3.88;0.10;;;11.10;99.90;;;;;;5099008;28;20075;-81
2021/10/21 12:49:39;;;;;;;2.70;0.15;;;11.00;99.90;;;;;;5096398;28;20052;-80
2021/10/21 12:52:12;;;;;;;2.08;0.00;;;11.00;99.90;;;;;;5098174;28;20392;-80
2021/10/21 12:54:39;;;;;;;0.88;0.00;;;11.10;99.90;;;;;;5096887;28;20492;-80
2021/10/21 12:57:06;;;;;;;3.00;0.00;;;11.30;99.90;;;;;;5098575;28;20043;-80